Time;durP1;ratioP1;P1;durP2;ratioP2;P2;SDS_P1;SDS_P2;PMS_P1;PMS_P2;Temp;Humidity;BMP_temperature;BMP_pressure;BME280_temperature;BME280_humidity;BME280_pressure;Samples;Min_cycle;Max_cycle;Signal;HPM_P1;HPM_P2
2022/08/30 00:02:43;;;;;;;7.10;5.60;;;20.50;99.90;;;;;;5000362;28;20207;-67
2022/08/30 00:05:08;;;;;;;5.93;5.40;;;20.50;99.90;;;;;;5032748;28;20989;-69
2022/08/30 00:07:34;;;;;;;5.97;5.47;;;20.40;99.90;;;;;;5034155;28;20454;-69
2022/08/30 00:10:00;;;;;;;5.67;5.17;;;20.30;99.90;;;;;;5033787;28;20168;-69
2022/08/30 00:12:26;;;;;;;5.60;5.03;;;20.30;99.90;;;;;;5034011;28;20198;-69
2022/08/30 00:14:52;;;;;;;7.60;5.13;;;20.30;99.90;;;;;;5032533;28;20194;-69
2022/08/30 00:17:18;;;;;;;7.47;5.70;;;20.30;99.90;;;;;;5033827;28;20398;-69
2022/08/30 00:19:44;;;;;;;6.53;5.87;;;20.30;99.90;;;;;;5034096;28;20421;-69
2022/08/30 00:22:10;;;;;;;6.07;5.53;;;20.20;99.90;;;;;;5033657;28;20212;-69
2022/08/30 00:24:35;;;;;;;8.83;4.77;;;20.10;99.90;;;;;;5033444;28;20414;-69
2022/08/30 00:27:01;;;;;;;5.17;4.77;;;20.10;99.90;;;;;;5033820;28;20199;-69
2022/08/30 00:29:27;;;;;;;5.90;4.90;;;20.10;99.90;;;;;;5033534;28;20202;-69
2022/08/30 00:31:52;;;;;;;6.13;5.53;;;20.10;99.90;;;;;;5031479;28;20182;-69
2022/08/30 00:34:18;;;;;;;6.23;4.73;;;20.10;99.90;;;;;;5013626;28;20168;-69
2022/08/30 00:36:44;;;;;;;5.97;5.00;;;20.10;99.90;;;;;;5014093;28;20172;-69
2022/08/30 00:39:10;;;;;;;6.53;5.63;;;20.00;99.90;;;;;;5013612;28;20237;-69
2022/08/30 00:41:36;;;;;;;6.40;5.60;;;20.00;99.90;;;;;;5014117;28;20498;-69
2022/08/30 00:44:03;;;;;;;5.50;5.00;;;19.90;99.90;;;;;;5014318;28;20192;-68
2022/08/30 00:46:28;;;;;;;6.77;5.90;;;19.80;99.90;;;;;;5031560;28;20298;-69
2022/08/30 00:48:55;;;;;;;6.70;6.00;;;19.80;99.90;;;;;;5033408;28;20472;-69
2022/08/30 00:51:23;;;;;;;6.60;6.00;;;19.80;99.90;;;;;;5033387;28;20645;-69
2022/08/30 00:53:53;;;;;;;6.40;5.33;;;19.80;99.90;;;;;;5033111;28;20920;-69
2022/08/30 00:56:20;;;;;;;7.27;6.67;;;19.80;99.90;;;;;;5033406;28;20421;-69
2022/08/30 00:58:50;;;;;;;6.27;5.67;;;19.80;99.90;;;;;;5033582;28;20410;-69
2022/08/30 01:01:17;;;;;;;8.03;5.90;;;19.70;99.90;;;;;;5034356;28;20395;-69
2022/08/30 01:03:44;;;;;;;7.70;5.60;;;19.70;99.90;;;;;;5037228;28;20433;-69
2022/08/30 01:06:13;;;;;;;6.97;6.30;;;19.70;99.90;;;;;;5035764;28;20457;-69
2022/08/30 01:08:39;;;;;;;9.13;6.00;;;19.50;99.90;;;;;;5037434;28;20444;-69
2022/08/30 01:11:05;;;;;;;7.77;6.23;;;19.50;99.90;;;;;;5036138;28;20457;-69
2022/08/30 01:13:33;;;;;;;11.93;8.13;;;19.60;99.90;;;;;;5037367;28;20195;-69
2022/08/30 01:15:59;;;;;;;12.80;6.60;;;19.60;99.90;;;;;;5037007;28;20505;-69
2022/08/30 01:18:24;;;;;;;8.40;7.20;;;19.60;99.90;;;;;;5036919;28;20410;-69
2022/08/30 01:21:09;;;;;;;7.97;6.80;;;19.50;99.90;;;;;;5035762;28;20766;-68
2022/08/30 01:23:39;;;;;;;6.53;5.93;;;19.60;99.90;;;;;;5037254;28;20688;-69
2022/08/30 01:26:05;;;;;;;7.20;6.50;;;19.40;99.90;;;;;;5036842;28;20495;-68
2022/08/30 01:28:31;;;;;;;7.37;6.77;;;19.50;99.90;;;;;;5036982;28;20401;-69
2022/08/30 01:30:57;;;;;;;7.20;6.30;;;19.50;99.90;;;;;;5036916;28;20421;-69
2022/08/30 01:33:23;;;;;;;7.53;6.83;;;19.50;99.90;;;;;;5036846;28;20422;-69
2022/08/30 01:35:55;;;;;;;7.73;7.03;;;19.40;99.90;;;;;;5036671;28;20171;-69
2022/08/30 01:38:25;;;;;;;7.97;6.50;;;19.30;99.90;;;;;;5036863;28;20386;-69
2022/08/30 01:40:56;;;;;;;7.73;7.03;;;19.30;99.90;;;;;;5036334;28;20425;-69
2022/08/30 01:43:22;;;;;;;8.40;7.07;;;19.30;99.90;;;;;;5036634;28;20422;-69
2022/08/30 01:45:47;;;;;;;7.63;6.30;;;19.30;99.90;;;;;;5036703;28;20817;-68
2022/08/30 01:48:13;;;;;;;7.03;6.27;;;19.30;99.90;;;;;;5036664;28;20644;-69
2022/08/30 01:50:40;;;;;;;7.20;6.30;;;19.30;99.90;;;;;;5035856;28;20179;-69
2022/08/30 01:53:06;;;;;;;8.90;6.67;;;19.30;99.90;;;;;;5036131;28;20286;-68
2022/08/30 01:55:32;;;;;;;8.40;7.00;;;19.20;99.90;;;;;;5036718;28;20889;-69
2022/08/30 01:57:57;;;;;;;8.43;6.80;;;19.20;99.90;;;;;;5036113;28;20405;-69
2022/08/30 02:00:23;;;;;;;7.60;6.80;;;19.20;99.90;;;;;;5036454;28;20625;-69
2022/08/30 02:02:49;;;;;;;8.60;6.70;;;19.10;99.90;;;;;;5036025;28;20230;-69
2022/08/30 02:05:15;;;;;;;6.27;5.67;;;19.10;99.90;;;;;;5034885;28;20465;-69
2022/08/30 02:07:40;;;;;;;7.70;6.90;;;19.10;99.90;;;;;;5036423;28;20206;-69
2022/08/30 02:10:06;;;;;;;7.20;6.60;;;19.10;99.90;;;;;;5035979;28;20533;-68
2022/08/30 02:12:33;;;;;;;12.23;5.80;;;19.10;99.90;;;;;;5035070;28;20217;-68
2022/08/30 02:14:59;;;;;;;9.00;6.57;;;19.10;99.90;;;;;;5036453;28;20398;-68
2022/08/30 02:17:25;;;;;;;7.73;7.03;;;19.10;99.90;;;;;;5035816;28;20488;-68
2022/08/30 02:19:51;;;;;;;8.50;6.80;;;19.00;99.90;;;;;;5035492;28;20960;-68
2022/08/30 02:22:17;;;;;;;7.53;6.73;;;19.00;99.90;;;;;;5035462;28;20706;-69
2022/08/30 02:24:42;;;;;;;7.57;6.67;;;18.90;99.90;;;;;;5036186;28;20224;-69
2022/08/30 02:27:08;;;;;;;8.83;7.20;;;18.90;99.90;;;;;;5035893;28;20234;-69
2022/08/30 02:29:34;;;;;;;7.23;6.53;;;18.90;99.90;;;;;;5035792;28;20187;-67
2022/08/30 02:31:59;;;;;;;6.90;6.40;;;18.90;99.90;;;;;;5035790;28;20509;-67
2022/08/30 02:34:25;;;;;;;7.00;6.33;;;18.90;99.90;;;;;;5035557;28;20167;-68
2022/08/30 02:36:51;;;;;;;9.57;6.80;;;19.00;99.90;;;;;;5035273;28;20253;-69
2022/08/30 02:39:16;;;;;;;8.27;6.80;;;19.00;99.90;;;;;;5035570;28;20261;-69
2022/08/30 02:41:42;;;;;;;8.60;7.30;;;18.90;99.90;;;;;;5035381;28;20221;-68
2022/08/30 02:44:09;;;;;;;6.67;5.93;;;18.90;99.90;;;;;;5035411;28;20366;-68
2022/08/30 02:46:36;;;;;;;9.10;7.33;;;18.90;99.90;;;;;;5036399;28;20203;-68
2022/08/30 02:49:02;;;;;;;8.40;6.80;;;18.80;99.90;;;;;;5035321;28;20406;-68
2022/08/30 02:51:27;;;;;;;8.10;7.30;;;18.80;99.90;;;;;;5034809;28;20505;-69
2022/08/30 02:53:53;;;;;;;7.73;7.03;;;18.90;99.90;;;;;;5035017;28;20469;-69
2022/08/30 02:56:18;;;;;;;7.50;6.80;;;18.90;99.90;;;;;;5035326;28;20694;-68
2022/08/30 02:58:44;;;;;;;8.37;7.50;;;18.90;99.90;;;;;;5035133;28;20215;-68
2022/08/30 03:01:12;;;;;;;8.10;7.37;;;18.80;99.90;;;;;;5035136;28;20628;-68
2022/08/30 03:03:39;;;;;;;14.53;7.20;;;18.90;99.90;;;;;;5035058;28;20541;-68
2022/08/30 03:06:05;;;;;;;8.90;8.00;;;19.00;99.90;;;;;;5033487;28;20510;-68
2022/08/30 03:08:31;;;;;;;8.43;7.30;;;18.90;99.90;;;;;;5034495;28;20509;-68
2022/08/30 03:10:58;;;;;;;7.30;6.60;;;18.90;99.90;;;;;;5035019;28;20295;-68
2022/08/30 03:13:24;;;;;;;7.87;7.17;;;18.90;99.90;;;;;;5034642;28;20923;-67
2022/08/30 03:15:50;;;;;;;7.47;6.77;;;18.90;99.90;;;;;;5034773;28;20418;-68
2022/08/30 03:18:20;;;;;;;9.10;6.93;;;18.80;99.90;;;;;;5034794;28;20171;-70
2022/08/30 03:20:47;;;;;;;8.07;7.30;;;18.80;99.90;;;;;;5034243;28;20410;-69
2022/08/30 03:23:13;;;;;;;7.70;6.90;;;18.90;99.90;;;;;;5033701;28;20451;-69
2022/08/30 03:25:38;;;;;;;7.80;7.10;;;18.90;99.90;;;;;;5034565;28;20422;-69
2022/08/30 03:28:05;;;;;;;7.70;7.00;;;18.90;99.90;;;;;;5035059;28;20257;-68
2022/08/30 03:30:31;;;;;;;7.37;6.60;;;19.00;99.90;;;;;;5034505;28;20163;-69
2022/08/30 03:32:56;;;;;;;7.60;6.80;;;18.90;99.90;;;;;;5034396;28;20425;-69
2022/08/30 03:35:22;;;;;;;7.10;6.43;;;18.90;99.90;;;;;;5034000;28;20418;-69
2022/08/30 03:37:48;;;;;;;13.20;6.33;;;18.80;99.90;;;;;;5034857;28;20233;-69
2022/08/30 03:40:16;;;;;;;7.50;6.80;;;18.90;99.90;;;;;;5034391;28;20406;-69
2022/08/30 03:42:42;;;;;;;7.17;6.47;;;18.90;99.90;;;;;;5034159;28;20252;-69
2022/08/30 03:45:08;;;;;;;8.20;7.40;;;18.80;99.90;;;;;;5034467;28;20414;-69
2022/08/30 03:47:34;;;;;;;8.20;7.40;;;18.80;99.90;;;;;;5034306;28;20476;-69
2022/08/30 03:49:59;;;;;;;9.33;7.97;;;18.80;99.90;;;;;;5034008;28;20501;-69
2022/08/30 03:52:26;;;;;;;7.73;7.03;;;18.70;99.90;;;;;;5033607;28;20434;-69
2022/08/30 03:54:51;;;;;;;8.30;6.97;;;18.70;99.90;;;;;;5033999;28;20168;-69
2022/08/30 03:57:18;;;;;;;8.27;7.47;;;18.70;99.90;;;;;;5032806;28;20831;-69
2022/08/30 03:59:44;;;;;;;9.43;7.30;;;18.70;99.90;;;;;;5034093;28;20175;-68
2022/08/30 04:02:09;;;;;;;7.23;6.53;;;18.70;99.90;;;;;;5033986;28;20507;-68
2022/08/30 04:04:35;;;;;;;11.43;7.10;;;18.70;99.90;;;;;;5033735;28;20182;-68
2022/08/30 04:07:00;;;;;;;8.43;6.50;;;18.70;99.90;;;;;;5031975;28;20195;-68
2022/08/30 04:09:26;;;;;;;10.60;7.57;;;18.70;99.90;;;;;;5033403;28;20300;-69
2022/08/30 04:11:51;;;;;;;10.67;6.77;;;18.70;99.90;;;;;;5033762;28;20180;-68
2022/08/30 04:14:17;;;;;;;8.33;6.83;;;18.60;99.90;;;;;;5032647;28;20182;-69
2022/08/30 04:16:43;;;;;;;7.67;6.97;;;18.50;99.90;;;;;;5033312;28;20174;-68
2022/08/30 04:19:09;;;;;;;7.73;6.90;;;18.50;99.90;;;;;;5033742;28;20409;-68
2022/08/30 04:21:35;;;;;;;8.90;7.27;;;18.50;99.90;;;;;;5032534;28;20429;-68
2022/08/30 04:24:02;;;;;;;10.83;7.77;;;18.40;99.90;;;;;;5033530;28;20214;-68
2022/08/30 04:26:28;;;;;;;8.13;7.53;;;18.40;99.90;;;;;;5033017;28;20854;-69
2022/08/30 04:28:54;;;;;;;10.10;8.17;;;18.30;99.90;;;;;;5033476;28;20410;-69
2022/08/30 04:31:20;;;;;;;8.50;7.50;;;18.30;99.90;;;;;;5033476;28;20535;-69
2022/08/30 04:33:46;;;;;;;8.70;7.50;;;18.40;99.90;;;;;;5033536;28;20787;-69
2022/08/30 04:36:12;;;;;;;7.80;7.07;;;18.40;99.90;;;;;;5032749;28;20504;-69
2022/08/30 04:38:39;;;;;;;7.40;6.80;;;18.50;99.90;;;;;;5032601;28;20258;-70
2022/08/30 04:41:10;;;;;;;8.47;7.20;;;18.40;99.90;;;;;;5032517;28;20496;-69
2022/08/30 04:43:36;;;;;;;7.50;6.73;;;18.40;99.90;;;;;;5033369;28;20422;-69
2022/08/30 04:46:05;;;;;;;8.97;7.70;;;18.40;99.90;;;;;;5031973;28;20453;-69
2022/08/30 04:48:31;;;;;;;7.77;7.07;;;18.50;99.90;;;;;;5031930;28;20422;-69
2022/08/30 04:50:56;;;;;;;9.03;7.13;;;18.30;99.90;;;;;;5033041;28;20790;-69
2022/08/30 04:53:22;;;;;;;8.70;8.00;;;18.40;99.90;;;;;;5033032;28;20239;-69
2022/08/30 04:55:48;;;;;;;9.00;8.20;;;18.30;99.90;;;;;;5032429;28;20171;-69
2022/08/30 04:58:14;;;;;;;6.40;5.80;;;18.30;99.90;;;;;;5033251;28;20172;-69
2022/08/30 05:00:41;;;;;;;8.27;7.40;;;18.20;99.90;;;;;;5033192;28;20702;-69
2022/08/30 05:03:08;;;;;;;7.93;7.23;;;18.30;99.90;;;;;;5032991;28;20197;-68
2022/08/30 05:05:39;;;;;;;8.80;7.90;;;18.30;99.90;;;;;;5032490;28;20409;-69
2022/08/30 05:08:14;;;;;;;8.47;7.70;;;18.40;99.90;;;;;;5031897;28;20935;-69
2022/08/30 05:10:45;;;;;;;9.40;7.53;;;18.40;99.90;;;;;;5032963;28;20434;-69
2022/08/30 05:13:12;;;;;;;8.73;7.90;;;18.50;99.90;;;;;;5033084;28;20516;-69
2022/08/30 05:15:39;;;;;;;8.73;7.50;;;18.50;99.90;;;;;;5032188;28;20521;-69
2022/08/30 05:18:06;;;;;;;9.80;7.30;;;18.50;99.90;;;;;;5032853;28;20445;-69
2022/08/30 05:20:32;;;;;;;9.70;7.23;;;18.50;99.90;;;;;;5033285;28;20731;-69
2022/08/30 05:22:58;;;;;;;8.93;8.07;;;18.50;99.90;;;;;;5032411;28;20520;-69
2022/08/30 05:25:31;;;;;;;8.07;7.27;;;18.60;99.90;;;;;;5031981;28;20420;-69
2022/08/30 05:27:57;;;;;;;7.83;7.03;;;18.60;99.90;;;;;;5033052;28;20539;-69
2022/08/30 05:30:25;;;;;;;7.93;7.17;;;18.70;99.90;;;;;;5032602;28;20759;-69
2022/08/30 05:32:51;;;;;;;8.53;7.13;;;18.90;99.90;;;;;;5031513;28;20430;-68
2022/08/30 05:35:18;;;;;;;8.10;7.33;;;19.10;99.90;;;;;;5032821;28;20464;-69
2022/08/30 05:37:44;;;;;;;8.13;7.33;;;19.20;99.90;;;;;;5032707;28;20899;-69
2022/08/30 05:40:11;;;;;;;6.77;6.17;;;19.30;99.90;;;;;;5033140;28;20422;-69
2022/08/30 05:42:41;;;;;;;9.63;6.70;;;19.40;99.90;;;;;;5033168;28;20214;-69
2022/08/30 05:45:07;;;;;;;14.40;7.50;;;19.60;99.90;;;;;;5032618;28;20418;-69
2022/08/30 05:47:32;;;;;;;8.63;7.73;;;19.60;99.90;;;;;;5033320;28;20973;-69
2022/08/30 05:49:58;;;;;;;8.00;7.20;;;19.50;99.90;;;;;;5037161;28;20417;-68
2022/08/30 05:52:24;;;;;;;7.80;6.83;;;19.60;99.90;;;;;;5059701;23;20207;-68
2022/08/30 05:54:55;;;;;;;7.63;6.83;;;19.70;99.90;;;;;;5036416;28;20638;-69
2022/08/30 05:57:21;;;;;;;7.37;6.70;;;19.80;99.90;;;;;;5035844;28;20191;-68
2022/08/30 05:59:46;;;;;;;8.60;7.60;;;19.90;99.90;;;;;;5035748;28;20445;-68
2022/08/30 06:02:12;;;;;;;8.90;7.00;;;20.00;99.90;;;;;;5035650;28;20505;-68
2022/08/30 06:04:37;;;;;;;8.80;7.13;;;20.00;99.90;;;;;;5016201;28;20187;-69
2022/08/30 06:07:04;;;;;;;8.60;7.70;;;20.10;99.90;;;;;;5015535;28;20645;-69
2022/08/30 06:09:30;;;;;;;7.03;6.43;;;20.20;99.90;;;;;;5014685;28;20180;-69
2022/08/30 06:11:56;;;;;;;9.37;8.37;;;20.30;99.90;;;;;;5016008;28;20399;-69
2022/08/30 06:14:23;;;;;;;8.40;7.60;;;20.20;99.90;;;;;;5015940;28;20423;-69
2022/08/30 06:16:50;;;;;;;8.10;6.97;;;20.30;99.90;;;;;;5013789;28;20577;-69
2022/08/30 06:19:16;;;;;;;8.20;7.40;;;20.50;99.90;;;;;;5015617;28;20434;-68
2022/08/30 06:21:43;;;;;;;8.90;8.03;;;20.60;99.90;;;;;;5014418;28;20438;-69
2022/08/30 06:24:10;;;;;;;10.13;8.57;;;20.70;99.90;;;;;;5015147;28;20430;-69
2022/08/30 06:26:41;;;;;;;9.33;8.00;;;20.80;99.90;;;;;;5030304;28;20505;-70
2022/08/30 06:29:12;;;;;;;8.20;7.37;;;21.00;99.90;;;;;;5015989;28;20390;-70
2022/08/30 06:31:38;;;;;;;9.23;8.33;;;21.10;99.90;;;;;;5015566;28;20386;-69
2022/08/30 06:34:04;;;;;;;11.33;8.70;;;21.30;99.90;;;;;;5016003;28;20422;-69
2022/08/30 06:36:30;;;;;;;10.33;7.73;;;21.40;99.90;;;;;;5015632;28;20200;-70
2022/08/30 06:38:57;;;;;;;11.10;8.63;;;21.60;99.90;;;;;;5014864;28;20939;-69
2022/08/30 06:41:26;;;;;;;10.10;9.10;;;21.70;99.90;;;;;;5015086;28;20399;-70
2022/08/30 06:43:52;;;;;;;9.00;7.57;;;21.80;99.90;;;;;;5015899;28;20422;-70
2022/08/30 06:46:20;;;;;;;11.90;8.83;;;21.90;99.90;;;;;;5014693;28;20896;-69
2022/08/30 06:48:46;;;;;;;10.17;9.27;;;21.80;99.90;;;;;;5015226;28;20403;-70
2022/08/30 06:51:12;;;;;;;10.40;9.30;;;21.50;99.90;;;;;;5015061;28;20410;-69
2022/08/30 06:53:38;;;;;;;11.37;10.27;;;21.10;99.90;;;;;;5014141;28;20233;-69
2022/08/30 06:56:07;;;;;;;10.70;9.60;;;21.20;99.90;;;;;;5014806;28;20702;-70
2022/08/30 06:58:34;;;;;;;11.93;10.10;;;21.20;99.90;;;;;;5014539;28;20172;-70
2022/08/30 07:01:00;;;;;;;14.83;10.23;;;21.10;99.90;;;;;;5014947;28;20476;-69
2022/08/30 07:03:26;;;;;;;15.00;11.60;;;21.40;99.90;;;;;;5014717;28;20435;-69
2022/08/30 07:05:52;;;;;;;12.20;10.63;;;21.30;99.90;;;;;;5014901;28;20657;-69
2022/08/30 07:08:19;;;;;;;12.60;11.37;;;21.50;99.90;;;;;;5013126;28;20778;-69
2022/08/30 07:10:44;;;;;;;13.07;10.90;;;21.20;99.90;;;;;;5014751;28;20413;-69
2022/08/30 07:13:11;;;;;;;18.60;12.10;;;21.10;99.90;;;;;;5014603;28;20426;-69
2022/08/30 07:15:40;;;;;;;16.33;11.00;;;21.20;99.90;;;;;;5014902;28;20215;-70
2022/08/30 07:20:50;;;;;;;12.80;11.50;;;21.50;99.90;;;;;;5014934;28;20418;-69
2022/08/30 07:23:15;;;;;;;10.80;9.70;;;21.60;99.90;;;;;;5014415;28;20455;-69
2022/08/30 07:25:41;;;;;;;12.13;10.90;;;21.80;99.90;;;;;;5014223;28;20610;-69
2022/08/30 07:28:08;;;;;;;12.80;9.77;;;21.90;99.90;;;;;;5013322;28;20225;-69
2022/08/30 07:30:34;;;;;;;11.40;9.57;;;22.10;99.90;;;;;;5014325;28;20172;-69
2022/08/30 07:33:00;;;;;;;11.60;10.40;;;22.40;99.90;;;;;;5014572;28;20526;-70
2022/08/30 07:35:26;;;;;;;11.07;9.83;;;22.80;99.90;;;;;;5014639;28;20888;-70
2022/08/30 07:37:52;;;;;;;12.33;10.40;;;22.90;99.90;;;;;;5029497;28;20419;-70
2022/08/30 07:40:17;;;;;;;10.30;9.30;;;23.40;99.90;;;;;;5012449;28;20780;-69
2022/08/30 07:42:43;;;;;;;9.73;8.83;;;23.60;99.90;;;;;;5014210;28;20326;-69
2022/08/30 07:45:10;;;;;;;13.20;9.13;;;23.40;99.90;;;;;;5014057;28;20176;-69
2022/08/30 07:47:36;;;;;;;12.90;9.60;;;23.70;99.90;;;;;;5014197;28;20194;-69
2022/08/30 07:50:03;;;;;;;11.93;10.43;;;23.50;99.90;;;;;;5013911;28;20497;-70
2022/08/30 07:52:29;;;;;;;11.23;9.30;;;23.40;99.90;;;;;;5014158;28;20252;-69
2022/08/30 07:54:55;;;;;;;10.13;9.13;;;23.30;99.90;;;;;;5013257;28;20565;-70
2022/08/30 07:57:21;;;;;;;10.00;8.60;;;23.50;99.90;;;;;;5014440;28;20407;-70
2022/08/30 07:59:47;;;;;;;10.23;9.27;;;23.80;99.90;;;;;;5014096;28;20497;-70
2022/08/30 08:02:13;;;;;;;9.90;8.93;;;23.90;99.90;;;;;;5029139;28;20444;-70
2022/08/30 08:04:38;;;;;;;13.27;9.87;;;23.70;99.90;;;;;;5013939;28;20659;-69
2022/08/30 08:07:04;;;;;;;10.67;9.67;;;23.80;99.90;;;;;;5013691;28;20269;-70
2022/08/30 08:09:30;;;;;;;16.53;10.30;;;23.70;99.90;;;;;;5012363;28;20528;-69
2022/08/30 08:11:55;;;;;;;9.70;8.60;;;23.60;99.90;;;;;;5013151;28;20521;-69
2022/08/30 08:14:22;;;;;;;11.70;9.50;;;23.60;99.90;;;;;;5013530;28;20689;-71
2022/08/30 08:16:48;;;;;;;9.57;8.67;;;23.60;99.90;;;;;;5014035;28;20386;-71
2022/08/30 08:19:14;;;;;;;9.53;8.63;;;23.90;99.90;;;;;;5013721;28;20439;-69
2022/08/30 08:21:40;;;;;;;8.67;7.87;;;24.20;99.90;;;;;;5013522;28;20403;-69
2022/08/30 08:24:06;;;;;;;11.33;7.50;;;24.30;99.90;;;;;;5012902;28;20427;-69
2022/08/30 08:26:37;;;;;;;9.70;7.87;;;24.60;99.90;;;;;;5013302;28;20466;-69
2022/08/30 08:29:04;;;;;;;11.13;8.23;;;25.00;99.90;;;;;;5013561;28;20410;-69
2022/08/30 08:31:29;;;;;;;7.77;7.07;;;24.60;99.90;;;;;;5013390;28;20490;-69
2022/08/30 08:33:57;;;;;;;8.33;7.60;;;24.40;99.90;;;;;;5013228;28;20565;-69
2022/08/30 08:36:23;;;;;;;9.90;6.80;;;24.50;99.90;;;;;;5013513;28;20180;-69
2022/08/30 08:38:48;;;;;;;9.77;7.10;;;24.40;99.90;;;;;;5012805;28;20430;-68
2022/08/30 08:41:51;;;;;;;7.97;7.20;;;24.70;99.90;;;;;;5013216;28;20172;-69
2022/08/30 08:44:38;;;;;;;8.30;7.47;;;25.00;99.90;;;;;;5013520;28;20184;-69
2022/08/30 08:47:27;;;;;;;7.57;6.63;;;25.00;99.90;;;;;;5013844;28;20430;-71
2022/08/30 08:49:57;;;;;;;8.67;7.87;;;25.10;99.90;;;;;;5013491;28;20525;-69
2022/08/30 08:55:55;;;;;;;10.07;8.87;;;25.20;99.90;;;;;;5008834;28;20429;-69
2022/08/30 08:58:24;;;;;;;8.23;7.53;;;25.30;99.90;;;;;;5012205;28;20841;-70
2022/08/30 09:00:51;;;;;;;11.23;8.23;;;25.20;99.90;;;;;;5012907;28;20183;-69
2022/08/30 09:03:20;;;;;;;9.03;8.13;;;25.00;99.90;;;;;;5013295;28;20980;-69
2022/08/30 09:05:47;;;;;;;9.83;8.33;;;25.00;99.90;;;;;;5012683;28;20549;-70
2022/08/30 09:08:16;;;;;;;7.63;7.00;;;25.10;99.90;;;;;;5011897;28;20415;-70
2022/08/30 09:11:01;;;;;;;9.07;7.53;;;24.90;99.90;;;;;;5011562;28;20422;-69
2022/08/30 09:13:27;;;;;;;8.63;7.80;;;25.10;99.90;;;;;;5013079;28;20422;-69
2022/08/30 09:15:56;;;;;;;9.93;7.70;;;25.40;99.90;;;;;;5011790;28;20419;-70
2022/08/30 09:18:46;;;;;;;9.80;6.97;;;25.60;99.90;;;;;;5012447;28;20411;-69
2022/08/30 09:21:19;;;;;;;8.73;7.53;;;25.50;99.90;;;;;;5012987;28;20400;-69
2022/08/30 09:23:49;;;;;;;7.50;6.90;;;25.30;99.90;;;;;;5017183;28;20430;-69
2022/08/30 09:26:44;;;;;;;6.67;6.03;;;25.40;99.90;;;;;;5016971;28;20439;-70
2022/08/30 09:29:17;;;;;;;6.70;6.10;;;25.90;99.90;;;;;;5016668;28;20397;-70
2022/08/30 09:31:50;;;;;;;7.10;6.47;;;26.00;99.90;;;;;;5016840;28;20379;-70
2022/08/30 09:34:19;;;;;;;7.50;6.80;;;26.10;99.90;;;;;;5016698;28;20439;-67
2022/08/30 09:36:50;;;;;;;7.07;6.10;;;26.30;99.90;;;;;;5016732;28;20817;-69
2022/08/30 09:39:32;;;;;;;7.40;6.63;;;26.40;99.90;;;;;;5016464;28;20419;-68
2022/08/30 09:42:25;;;;;;;6.27;5.67;;;26.20;99.90;;;;;;5016612;28;20391;-69
2022/08/30 09:44:52;;;;;;;8.60;6.57;;;26.50;99.90;;;;;;5016374;28;20411;-69
2022/08/30 09:47:29;;;;;;;6.63;6.03;;;26.50;99.90;;;;;;5015837;28;20541;-69
2022/08/30 09:50:03;;;;;;;6.67;6.10;;;26.60;99.90;;;;;;5016100;28;20749;-69
2022/08/30 09:52:34;;;;;;;7.53;6.53;;;26.90;99.90;;;;;;5016033;28;20395;-70
2022/08/30 09:55:29;;;;;;;7.90;7.00;;;27.10;99.90;;;;;;5016865;28;20445;-69
2022/08/30 09:57:55;;;;;;;7.10;6.40;;;27.00;99.90;;;;;;5015906;28;20410;-69
2022/08/30 10:00:24;;;;;;;7.90;7.20;;;27.00;99.90;;;;;;5016254;28;20564;-70
2022/08/30 10:03:05;;;;;;;8.03;7.23;;;27.20;99.90;;;;;;5015736;28;20649;-68
2022/08/30 10:06:13;;;;;;;6.70;6.10;;;27.20;99.40;;;;;;5016265;28;20410;-69
2022/08/30 10:08:48;;;;;;;6.77;6.07;;;27.10;99.90;;;;;;5016106;28;20477;-69
2022/08/30 10:11:16;;;;;;;7.27;6.60;;;27.30;99.50;;;;;;5015946;28;20426;-70
2022/08/30 10:14:04;;;;;;;6.27;5.70;;;27.40;98.80;;;;;;5015364;28;20429;-69
2022/08/30 10:16:51;;;;;;;6.97;6.27;;;27.40;98.30;;;;;;5014792;28;20465;-69
2022/08/30 10:19:45;;;;;;;6.33;5.73;;;27.70;97.60;;;;;;5015592;28;20395;-70
2022/08/30 10:22:23;;;;;;;5.53;5.10;;;27.80;96.30;;;;;;5016034;28;20479;-69
2022/08/30 10:24:55;;;;;;;5.53;5.00;;;27.80;96.60;;;;;;5015637;28;20422;-69
2022/08/30 10:27:28;;;;;;;6.00;5.40;;;27.80;95.70;;;;;;5015404;28;20435;-70
2022/08/30 10:30:02;;;;;;;6.60;5.50;;;28.00;95.90;;;;;;5015712;28;20526;-70
2022/08/30 10:32:42;;;;;;;7.17;5.80;;;28.10;95.30;;;;;;5015381;28;20391;-69
2022/08/30 10:35:21;;;;;;;6.00;4.87;;;28.40;94.70;;;;;;5015050;28;20433;-70
2022/08/30 10:37:52;;;;;;;4.67;4.27;;;28.40;92.90;;;;;;5015238;28;20406;-69
2022/08/30 10:43:42;;;;;;;5.00;4.50;;;28.50;92.70;;;;;;5015574;28;20485;-69
2022/08/30 10:46:17;;;;;;;6.00;5.40;;;29.00;91.70;;;;;;5015239;28;20447;-70
2022/08/30 10:48:45;;;;;;;5.47;5.10;;;28.90;91.80;;;;;;5015609;28;20429;-69
2022/08/30 10:51:25;;;;;;;5.73;5.17;;;28.70;91.80;;;;;;5013687;28;20407;-69
2022/08/30 10:54:12;;;;;;;4.83;4.33;;;29.50;89.20;;;;;;5014992;28;20841;-70
2022/08/30 10:56:41;;;;;;;5.20;4.70;;;31.20;85.00;;;;;;5014926;28;20379;-70
2022/08/30 10:59:07;;;;;;;5.13;4.57;;;31.20;81.00;;;;;;5014782;28;20430;-70
2022/08/30 11:01:39;;;;;;;4.30;4.00;;;31.90;77.10;;;;;;5015111;28;20445;-70
2022/08/30 11:04:10;;;;;;;3.63;3.33;;;32.70;69.80;;;;;;5014852;28;20619;-70
2022/08/30 11:06:41;;;;;;;3.77;3.47;;;33.50;63.90;;;;;;5014899;28;20951;-70
2022/08/30 11:09:19;;;;;;;4.47;4.10;;;33.30;63.70;;;;;;5014758;28;20426;-72
2022/08/30 11:12:14;;;;;;;5.10;4.70;;;33.30;63.30;;;;;;5014735;28;20415;-68
2022/08/30 11:14:44;;;;;;;4.47;4.17;;;33.80;62.50;;;;;;5014734;28;20384;-68
2022/08/30 11:17:29;;;;;;;6.40;5.80;;;34.60;61.60;;;;;;5013468;28;20469;-70
2022/08/30 11:19:58;;;;;;;5.97;5.57;;;34.70;64.70;;;;;;5014959;28;20486;-68
2022/08/30 11:22:30;;;;;;;4.97;4.67;;;34.40;64.50;;;;;;5013918;28;20477;-70
2022/08/30 11:25:01;;;;;;;5.40;4.77;;;35.20;63.20;;;;;;5014990;28;20488;-68
2022/08/30 11:27:45;;;;;;;4.73;4.43;;;35.10;60.70;;;;;;5013819;28;20947;-69
2022/08/30 11:30:40;;;;;;;5.17;4.77;;;35.60;59.50;;;;;;5014232;28;20411;-69
2022/08/30 11:33:11;;;;;;;5.67;5.17;;;35.40;58.50;;;;;;5001501;28;20852;-69
2022/08/30 11:35:48;;;;;;;5.87;5.03;;;35.50;59.40;;;;;;5014158;28;20403;-69
2022/08/30 11:38:22;;;;;;;5.43;5.03;;;35.20;60.00;;;;;;5013794;28;20379;-69
2022/08/30 11:41:09;;;;;;;4.70;4.30;;;35.10;58.80;;;;;;5013819;28;20380;-69
2022/08/30 11:43:35;;;;;;;6.60;4.70;;;35.30;58.80;;;;;;5013840;28;20425;-70
2022/08/30 11:46:23;;;;;;;5.53;5.00;;;33.70;61.10;;;;;;5012467;28;20395;-69
2022/08/30 11:48:55;;;;;;;4.90;4.50;;;33.70;62.20;;;;;;5014141;28;20211;-69
2022/08/30 11:51:24;;;;;;;4.60;4.20;;;34.00;62.10;;;;;;5014007;28;20461;-69
2022/08/30 11:54:08;;;;;;;8.70;5.43;;;34.00;62.60;;;;;;5014852;28;20445;-69
2022/08/30 11:57:11;;;;;;;4.67;4.27;;;33.60;62.60;;;;;;5013460;28;20414;-69
2022/08/30 11:59:55;;;;;;;5.10;4.70;;;33.00;64.80;;;;;;5013859;28;20502;-69
2022/08/30 12:02:51;;;;;;;4.87;4.47;;;33.10;65.00;;;;;;5011501;28;20790;-69
2022/08/30 12:05:38;;;;;;;5.20;4.80;;;32.70;63.80;;;;;;5013724;28;20480;-69
2022/08/30 12:08:28;;;;;;;4.80;4.40;;;33.30;63.60;;;;;;5013959;28;20646;-69
2022/08/30 12:10:56;;;;;;;5.20;4.60;;;33.10;63.70;;;;;;5000045;28;20990;-69
2022/08/30 12:13:36;;;;;;;4.90;4.50;;;32.50;65.10;;;;;;5013798;28;20473;-69
2022/08/30 12:16:10;;;;;;;8.03;7.23;;;32.20;65.50;;;;;;5013964;28;20403;-68
2022/08/30 12:18:45;;;;;;;4.73;4.27;;;32.20;66.10;;;;;;5012324;28;20422;-68
2022/08/30 12:21:19;;;;;;;4.77;4.37;;;31.90;64.80;;;;;;5013874;28;20461;-69
2022/08/30 12:24:14;;;;;;;5.17;4.67;;;31.90;66.70;;;;;;5012173;28;20418;-68
2022/08/30 12:26:43;;;;;;;5.13;4.70;;;32.00;66.00;;;;;;5012978;28;20464;-68
2022/08/30 12:29:24;;;;;;;4.90;4.50;;;31.80;65.30;;;;;;5013145;28;20409;-70
2022/08/30 12:32:18;;;;;;;5.40;4.83;;;32.60;66.30;;;;;;5012228;28;20430;-68
2022/08/30 12:34:43;;;;;;;5.47;5.07;;;32.30;64.60;;;;;;5013344;28;20802;-68
2022/08/30 12:37:24;;;;;;;5.13;4.40;;;32.90;68.20;;;;;;5013053;28;20410;-68
2022/08/30 12:40:21;;;;;;;5.00;4.50;;;34.00;62.60;;;;;;5013083;28;20688;-69
2022/08/30 12:42:51;;;;;;;5.23;4.77;;;35.10;59.00;;;;;;5004950;28;20442;-69
2022/08/30 12:45:19;;;;;;;4.47;4.17;;;34.80;58.40;;;;;;5013826;28;20414;-68
2022/08/30 12:48:00;;;;;;;4.70;4.30;;;35.50;59.30;;;;;;5013129;28;20793;-70
2022/08/30 12:50:54;;;;;;;4.30;4.00;;;35.70;56.50;;;;;;5013315;28;20392;-69
2022/08/30 12:53:29;;;;;;;4.90;4.33;;;35.70;55.80;;;;;;5010459;28;20486;-69
2022/08/30 12:56:02;;;;;;;6.50;4.70;;;36.00;56.20;;;;;;5013084;28;20425;-69
2022/08/30 12:58:36;;;;;;;4.63;4.10;;;35.90;55.70;;;;;;5013803;28;20915;-69
2022/08/30 13:01:35;;;;;;;5.50;4.30;;;35.50;56.60;;;;;;5012080;28;20551;-68
2022/08/30 13:04:22;;;;;;;4.93;4.50;;;34.00;59.50;;;;;;5013053;28;20423;-69
2022/08/30 13:06:51;;;;;;;5.23;4.80;;;33.90;58.60;;;;;;5013256;28;20552;-69
2022/08/30 13:09:28;;;;;;;4.57;4.27;;;34.50;58.10;;;;;;5028811;28;20414;-69
2022/08/30 13:11:55;;;;;;;4.87;4.57;;;36.30;55.50;;;;;;5012973;28;20383;-69